Shin-oh Maru — JG5594 — position and weather

sailwx.info

Track history (hours):
 
Tides and Currents Weather Stations Pressure Air Temp Water Temp Dewpoint Dewpoint Depression Visibility Wind Speed Wind Dir Waves Ship Positions

Shin-oh Maru

Last reported at 2015-Apr-17 22:13 UTC. Time now 2015-Apr-18 15:14 UTC.
Position N 36°06' E 141°11'.

Length 161 m; draft 7 m.

Type: Ship (hazmat cat A). MMSI: 431100859.

Date/timePositionNaut miles runAvg speedWind from/ knotsBaromVisibWave heightAir tempDewpointWater temp
2015-Apr-17 22:13N 36°06' E 141°11'1718.3
2015-Apr-17 21:17N 35°49' E 141°06'1318.7
2015-Apr-17 20:33N 35°36' E 141°01'1818.4
2015-Apr-17 19:33N 35°23' E 140°46'2017.6
2015-Apr-17 18:25N 35°08' E 140°29'1416.5
2015-Apr-17 17:33N 34°59' E 140°15'1716.9
2015-Apr-17 16:31N 34°51' E 139°56'1515.5
2015-Apr-17 15:33N 34°59' E 139°41'1717.0
2015-Apr-17 14:33N 35°16' E 139°46'1413.7
2015-Apr-17 13:34N 35°29' E 139°50'9 9.3
2015-Apr-17 12:33N 35°38' E 139°46'0 0.0
2015-Apr-17 11:27N 35°38' E 139°46'0 0.0
2015-Apr-17 10:27N 35°38' E 139°46'0 0.0
2015-Apr-17 09:27N 35°38' E 139°46'0 0.1
2015-Apr-17 08:33N 35°38' E 139°46'1313.3
2015-Apr-17 07:33N 35°24' E 139°46'1212.2
2015-Apr-17 06:33N 35°12' E 139°47'1818.0
2015-Apr-17 05:33N 34°54' E 139°46'1615.8
2015-Apr-17 04:32N 34°56' E 140°05'9017.0
2015-Apr-16 23:13N 36°11' E 141°08'29 0.6
2015-Apr-14 20:28N 35°42' E 141°03'1718.3
2015-Apr-14 19:33N 35°28' E 140°52'2019.2
2015-Apr-14 18:30N 35°13' E 140°35'1818.7
2015-Apr-14 17:33N 35°01' E 140°19'1818.5
2015-Apr-14 16:33N 34°52' E 139°60'1616.0
2015-Apr-14 15:33N 34°57' E 139°42'1817.6
2015-Apr-14 14:33N 35°15' E 139°46'1312.8
2015-Apr-14 13:33N 35°27' E 139°48'1010.5
2015-Apr-14 12:34N 35°38' E 139°46'0 0.0
2015-Apr-14 11:33N 35°38' E 139°46'0 0.0
2015-Apr-14 10:30N 35°38' E 139°46'0 0.1
2015-Apr-14 09:33N 35°38' E 139°46'0 0.0
2015-Apr-14 08:30N 35°38' E 139°46'0 0.0
2015-Apr-14 07:30N 35°38' E 139°46'0 0.0
2015-Apr-14 06:30N 35°38' E 139°46'0 0.0
2015-Apr-14 05:30N 35°38' E 139°46'0 0.0
2015-Apr-14 04:33N 35°38' E 139°46'0 0.0
2015-Apr-14 03:24N 35°38' E 139°46'7 8.7
2015-Apr-14 02:33N 35°34' E 139°53'0 0.3
2015-Apr-14 01:13N 35°33' E 139°53'0 0.0
2015-Apr-14 00:28N 35°33' E 139°53'0 0.0
2015-Apr-13 23:31N 35°33' E 139°53'0 0.0
2015-Apr-13 22:31N 35°33' E 139°53'0 0.0
2015-Apr-13 21:25N 35°33' E 139°53'0 0.1
2015-Apr-13 20:31N 35°33' E 139°53'0 0.0
2015-Apr-13 19:31N 35°33' E 139°53'0 0.0
2015-Apr-13 18:25N 35°33' E 139°53'0 0.0
2015-Apr-13 17:25N 35°33' E 139°53'0 0.0
2015-Apr-13 16:07N 35°33' E 139°53'0 0.0
2015-Apr-13 15:25N 35°33' E 139°53'0 0.1
2015-Apr-13 14:31N 35°33' E 139°53'0 0.0
2015-Apr-13 13:10N 35°33' E 139°53'0 0.1
2015-Apr-13 12:31N 35°33' E 139°53'0 0.1
2015-Apr-13 11:31N 35°33' E 139°53'0 0.0
2015-Apr-13 10:31N 35°33' E 139°53'0 0.0
2015-Apr-13 09:28N 35°33' E 139°53'1 1.2
2015-Apr-13 08:33N 35°32' E 139°53'1515.2
2015-Apr-13 07:34N 35°19' E 139°44'1414.0
2015-Apr-13 06:33N 35°05' E 139°45'1612.8
2015-Apr-13 05:17N 34°52' E 139°57'1419.0
2015-Apr-13 04:33N 34°59' E 140°11'2018.0
2015-Apr-13 03:28N 35°10' E 140°31'1817.9
2015-Apr-13 02:26N 35°24' E 140°46'1918.0
2015-Apr-13 01:23N 35°40' E 140°58'3618.5
2015-Apr-12 23:26N 36°15' E 141°09'2518.5
2015-Apr-12 22:05N 36°39' E 141°16'1119.3
2015-Apr-12 21:31N 36°50' E 141°19'67 1.4
2015-Apr-10 21:12N 35°44' E 141°00'1616.6
2015-Apr-10 20:16N 35°31' E 140°50'1217.4
2015-Apr-10 19:33N 35°21' E 140°41'1717.2
2015-Apr-10 18:33N 35°08' E 140°28'1716.8
2015-Apr-10 17:34N 34°57' E 140°12'1716.8
2015-Apr-10 16:32N 34°51' E 139°52'1515.6
2015-Apr-10 15:34N 35°05' E 139°44'1514.8
2015-Apr-10 14:33N 35°19' E 139°43'1615.5
2015-Apr-10 13:33N 35°34' E 139°49'4 4.2
2015-Apr-10 12:31N 35°38' E 139°46'0 0.0
2015-Apr-10 11:31N 35°38' E 139°46'0 0.0
2015-Apr-10 10:28N 35°38' E 139°46'0 0.0
2015-Apr-10 09:31N 35°38' E 139°46'0 0.1
2015-Apr-10 08:33N 35°38' E 139°46'1313.3
2015-Apr-10 07:34N 35°24' E 139°47'1212.3
2015-Apr-10 06:34N 35°12' E 139°47'1717.1
2015-Apr-10 05:33N 34°55' E 139°46'1515.0
2015-Apr-10 04:33N 34°56' E 140°04'4518.4
2015-Apr-10 02:05N 35°24' E 140°47'1418.7
2015-Apr-10 01:21N 35°36' E 140°56'  
Track history (hours):
 
Tides and Currents Weather Stations Pressure Air Temp Water Temp Dewpoint Dewpoint Depression Visibility Wind Speed Wind Dir Waves Ship Positions

Shin-oh Maru

Last reported at 2015-Apr-17 22:13 UTC. Time now 2015-Apr-18 15:14 UTC.
Position N 36°06' E 141°11'.

Length 161 m; draft 7 m.

Type: Ship (hazmat cat A). MMSI: 431100859.

Date/timePositionNaut miles runAvg speedWind from/ knotsBaromVisibWave heightAir tempDewpointWater temp
2015-Apr-17 22:13N 36°06' E 141°11'1718.3
2015-Apr-17 21:17N 35°49' E 141°06'1318.7
2015-Apr-17 20:33N 35°36' E 141°01'1818.4
2015-Apr-17 19:33N 35°23' E 140°46'2017.6
2015-Apr-17 18:25N 35°08' E 140°29'1416.5
2015-Apr-17 17:33N 34°59' E 140°15'1716.9
2015-Apr-17 16:31N 34°51' E 139°56'1515.5
2015-Apr-17 15:33N 34°59' E 139°41'1717.0
2015-Apr-17 14:33N 35°16' E 139°46'1413.7
2015-Apr-17 13:34N 35°29' E 139°50'9 9.3
2015-Apr-17 12:33N 35°38' E 139°46'0 0.0
2015-Apr-17 11:27N 35°38' E 139°46'0 0.0
2015-Apr-17 10:27N 35°38' E 139°46'0 0.0
2015-Apr-17 09:27N 35°38' E 139°46'0 0.1
2015-Apr-17 08:33N 35°38' E 139°46'1313.3
2015-Apr-17 07:33N 35°24' E 139°46'1212.2
2015-Apr-17 06:33N 35°12' E 139°47'1818.0
2015-Apr-17 05:33N 34°54' E 139°46'1615.8
2015-Apr-17 04:32N 34°56' E 140°05'9017.0
2015-Apr-16 23:13N 36°11' E 141°08'29 0.6
2015-Apr-14 20:28N 35°42' E 141°03'1718.3
2015-Apr-14 19:33N 35°28' E 140°52'2019.2
2015-Apr-14 18:30N 35°13' E 140°35'1818.7
2015-Apr-14 17:33N 35°01' E 140°19'1818.5
2015-Apr-14 16:33N 34°52' E 139°60'1616.0
2015-Apr-14 15:33N 34°57' E 139°42'1817.6
2015-Apr-14 14:33N 35°15' E 139°46'1312.8
2015-Apr-14 13:33N 35°27' E 139°48'1010.5
2015-Apr-14 12:34N 35°38' E 139°46'0 0.0
2015-Apr-14 11:33N 35°38' E 139°46'0 0.0
2015-Apr-14 10:30N 35°38' E 139°46'0 0.1
2015-Apr-14 09:33N 35°38' E 139°46'0 0.0
2015-Apr-14 08:30N 35°38' E 139°46'0 0.0
2015-Apr-14 07:30N 35°38' E 139°46'0 0.0
2015-Apr-14 06:30N 35°38' E 139°46'0 0.0
2015-Apr-14 05:30N 35°38' E 139°46'0 0.0
2015-Apr-14 04:33N 35°38' E 139°46'0 0.0
2015-Apr-14 03:24N 35°38' E 139°46'7 8.7
2015-Apr-14 02:33N 35°34' E 139°53'0 0.3
2015-Apr-14 01:13N 35°33' E 139°53'0 0.0
2015-Apr-14 00:28N 35°33' E 139°53'0 0.0
2015-Apr-13 23:31N 35°33' E 139°53'0 0.0
2015-Apr-13 22:31N 35°33' E 139°53'0 0.0
2015-Apr-13 21:25N 35°33' E 139°53'0 0.1
2015-Apr-13 20:31N 35°33' E 139°53'0 0.0
2015-Apr-13 19:31N 35°33' E 139°53'0 0.0
2015-Apr-13 18:25N 35°33' E 139°53'0 0.0
2015-Apr-13 17:25N 35°33' E 139°53'0 0.0
2015-Apr-13 16:07N 35°33' E 139°53'0 0.0
2015-Apr-13 15:25N 35°33' E 139°53'0 0.1
2015-Apr-13 14:31N 35°33' E 139°53'0 0.0
2015-Apr-13 13:10N 35°33' E 139°53'0 0.1
2015-Apr-13 12:31N 35°33' E 139°53'0 0.1
2015-Apr-13 11:31N 35°33' E 139°53'0 0.0
2015-Apr-13 10:31N 35°33' E 139°53'0 0.0
2015-Apr-13 09:28N 35°33' E 139°53'1 1.2
2015-Apr-13 08:33N 35°32' E 139°53'1515.2
2015-Apr-13 07:34N 35°19' E 139°44'1414.0
2015-Apr-13 06:33N 35°05' E 139°45'1612.8
2015-Apr-13 05:17N 34°52' E 139°57'1419.0
2015-Apr-13 04:33N 34°59' E 140°11'2018.0
2015-Apr-13 03:28N 35°10' E 140°31'1817.9
2015-Apr-13 02:26N 35°24' E 140°46'1918.0
2015-Apr-13 01:23N 35°40' E 140°58'3618.5
2015-Apr-12 23:26N 36°15' E 141°09'2518.5
2015-Apr-12 22:05N 36°39' E 141°16'1119.3
2015-Apr-12 21:31N 36°50' E 141°19'67 1.4
2015-Apr-10 21:12N 35°44' E 141°00'1616.6
2015-Apr-10 20:16N 35°31' E 140°50'1217.4
2015-Apr-10 19:33N 35°21' E 140°41'1717.2
2015-Apr-10 18:33N 35°08' E 140°28'1716.8
2015-Apr-10 17:34N 34°57' E 140°12'1716.8
2015-Apr-10 16:32N 34°51' E 139°52'1515.6
2015-Apr-10 15:34N 35°05' E 139°44'1514.8
2015-Apr-10 14:33N 35°19' E 139°43'1615.5
2015-Apr-10 13:33N 35°34' E 139°49'4 4.2
2015-Apr-10 12:31N 35°38' E 139°46'0 0.0
2015-Apr-10 11:31N 35°38' E 139°46'0 0.0
2015-Apr-10 10:28N 35°38' E 139°46'0 0.0
2015-Apr-10 09:31N 35°38' E 139°46'0 0.1
2015-Apr-10 08:33N 35°38' E 139°46'1313.3
2015-Apr-10 07:34N 35°24' E 139°47'1212.3
2015-Apr-10 06:34N 35°12' E 139°47'1717.1
2015-Apr-10 05:33N 34°55' E 139°46'1515.0
2015-Apr-10 04:33N 34°56' E 140°04'4518.4
2015-Apr-10 02:05N 35°24' E 140°47'1418.7
2015-Apr-10 01:21N 35°36' E 140°56'  

Dump ship's entire track history